Bonita, CA (91908)

4:21 AM PST on December 25, 2014 (GMT -0800)
Lower Surrey Drive | Change Station
CLOSE
Current Station
Personal Weather Station
Location: Bonita, CA
Elevation: 150 ft
Nearby Weather Stations

Elev 150 ft 32.65 °N, 117.04 °W | Updated 11 seconds ago

Overcast
Overcast
59.5 °F
Feels Like 59.5 °F
N
0.0
Wind Variable Wind from SW
Gusts 0.0 mph

Today
High -- | Low -- °F
--% Chance of Precip.
Yesterday
High -- | Low -- °F
Precip. -- in
6:48 AM 4:48 PM
Waxing Crescent, 16% visible
Pressure 29.81 in
Visibility 6.0 miles
Clouds Scattered Clouds 1300 ft
Mostly Cloudy 2600 ft
Overcast 3500 ft
Dew Point 56 °F
Humidity 88%
Rainfall 0.00 in
Snow Depth Not available.
UV 0.0 out of 12
Pollen 6.00 out of 12
Air Quality Not available.
Flu Activity Not available.
METAR KSDM 251153Z AUTO 25005KT 6SM -RA BR SCT013 BKN026 OVC035 14/13 A2982 RMK AO2 RAB20 SLP095 P0000 60000 T01440128 10156 20133 58009 $

More Conditions Fewer Conditions

Pressure 29.81 in
Visibility 6.0 miles
Clouds Scattered Clouds 1300 ft
Mostly Cloudy 2600 ft
Overcast 3500 ft
Dew Point 56 °F
Humidity 88%
Rainfall 0.00 in
Snow Depth Not available.
UV 0.0 out of 12
Pollen 6.00 out of 12
Air Quality Not available.
Flu Activity Not available.
METAR KSDM 251153Z AUTO 25005KT 6SM -RA BR SCT013 BKN026 OVC035 14/13 A2982 RMK AO2 RAB20 SLP095 P0000 60000 T01440128 10156 20133 58009 $

More Conditions Fewer Conditions

10-Day Weather Forecast

Almanac

Astronomy

Dec. 25, 2014 Rise Set
Actual Time
Civil Twilight
Nautical Twilight
Astronomical Twilight
Moon
Length of Visible Light
Length of Day
Tomorrow will be .
, % of the Moon is Illuminated

Today's Extremes

State Highs State Lows

Community

WunderPhotos

Upload Photos

1,780,266 photos uploaded!

WunderBlogs® & News

Nearby

Air Quality

  Air Quality AQ Index Pollutant
Not available.

Snow Depth

Station Depth Elevation

Earthquake Activity

City Distance Mag. Time & Date
Minimum magnitude displayed is 2.5.

Coastal Water Temperatures

Place Temperature

Nearby Weather Stations